Time;durP1;ratioP1;P1;durP2;ratioP2;P2;SDS_P1;SDS_P2;PMS_P1;PMS_P2;Temp;Humidity;BMP_temperature;BMP_pressure;BME280_temperature;BME280_humidity;BME280_pressure;Samples;Min_cycle;Max_cycle;Signal;HPM_P1;HPM_P2
2023/06/05 00:01:48;;;;;;;;;;;21.60;91.50;;;;;;5095463;28;19914;-39
2023/06/05 00:04:14;;;;;;;;;;;21.50;91.50;;;;;;5094533;28;20363;-38
2023/06/05 00:06:40;;;;;;;;;;;21.50;91.20;;;;;;5095171;28;19912;-39
2023/06/05 00:09:06;;;;;;;;;;;21.50;91.00;;;;;;5095201;28;19912;-39
2023/06/05 00:11:32;;;;;;;;;;;21.50;91.20;;;;;;5095181;28;19953;-39
2023/06/05 00:13:57;;;;;;;;;;;21.50;91.20;;;;;;5094878;28;19912;-39
2023/06/05 00:16:23;;;;;;;;;;;21.50;91.20;;;;;;5094135;28;19912;-39
2023/06/05 00:18:48;;;;;;;;;;;21.50;91.20;;;;;;5095054;28;19915;-39
2023/06/05 00:21:15;;;;;;;;;;;21.50;91.30;;;;;;5094692;28;19908;-39
2023/06/05 00:23:41;;;;;;;;;;;21.50;91.20;;;;;;5094027;28;19919;-39
2023/06/05 00:26:06;;;;;;;;;;;21.50;91.30;;;;;;5095382;28;19920;-39
2023/06/05 00:28:32;;;;;;;;;;;21.50;91.20;;;;;;5114974;28;20006;-39
2023/06/05 00:30:57;;;;;;;;;;;21.50;91.40;;;;;;5115167;28;19908;-39
2023/06/05 00:33:23;;;;;;;;;;;21.50;91.40;;;;;;5114857;28;20019;-39
2023/06/05 00:35:48;;;;;;;;;;;21.50;91.20;;;;;;5107846;28;19926;-40
2023/06/05 00:38:13;;;;;;;;;;;21.50;91.30;;;;;;5093677;28;19912;-39
2023/06/05 00:40:39;;;;;;;;;;;21.50;91.40;;;;;;5094317;28;19912;-39
2023/06/05 00:43:05;;;;;;;;;;;21.50;91.10;;;;;;5094631;28;19962;-39
2023/06/05 00:45:31;;;;;;;;;;;21.50;91.30;;;;;;5094788;28;19912;-39
2023/06/05 00:47:56;;;;;;;;;;;21.50;91.30;;;;;;5093296;28;19935;-39
2023/06/05 00:50:22;;;;;;;;;;;21.40;91.20;;;;;;5094305;28;19912;-39
2023/06/05 00:52:49;;;;;;;;;;;21.50;91.30;;;;;;5076495;28;19930;-39
2023/06/05 00:55:14;;;;;;;;;;;21.50;91.30;;;;;;5076351;28;19954;-39
2023/06/05 00:57:40;;;;;;;;;;;21.40;91.20;;;;;;5093804;28;20275;-39
2023/06/05 01:00:08;;;;;;;;;;;21.40;91.20;;;;;;5094115;28;19912;-39
2023/06/05 01:02:35;;;;;;;;;;;21.40;91.50;;;;;;5094085;28;19909;-39
2023/06/05 01:05:00;;;;;;;;;;;21.40;91.30;;;;;;5094053;28;20378;-39
2023/06/05 01:07:27;;;;;;;;;;;21.40;91.50;;;;;;5075295;28;19920;-39
2023/06/05 01:09:53;;;;;;;;;;;21.40;91.40;;;;;;5094331;28;19943;-39
2023/06/05 01:12:27;;;;;;;;;;;21.40;91.40;;;;;;5094095;28;19996;-39
2023/06/05 01:14:58;;;;;;;;;;;21.40;91.50;;;;;;5094620;28;19908;-39
2023/06/05 01:17:25;;;;;;;;;;;21.40;91.50;;;;;;5093299;28;20424;-39
2023/06/05 01:19:52;;;;;;;;;;;21.40;91.40;;;;;;5094441;28;19931;-39
2023/06/05 01:22:17;;;;;;;;;;;21.40;91.60;;;;;;5094017;28;19909;-39
2023/06/05 01:24:43;;;;;;;;;;;21.40;91.60;;;;;;5094485;28;19915;-39
2023/06/05 01:27:15;;;;;;;;;;;21.40;91.60;;;;;;5101596;28;19934;-39
2023/06/05 01:29:53;;;;;;;;;;;21.40;91.30;;;;;;5094091;28;19920;-39
2023/06/05 01:32:24;;;;;;;;;;;21.40;91.70;;;;;;5094110;28;19908;-38
2023/06/05 01:34:53;;;;;;;;;;;21.40;91.70;;;;;;5094793;28;20278;-39
2023/06/05 01:37:19;;;;;;;;;;;21.40;91.40;;;;;;5097593;28;19909;-39
2023/06/05 01:39:46;;;;;;;;;;;21.40;91.50;;;;;;5097686;28;19908;-39
2023/06/05 01:42:12;;;;;;;;;;;21.40;91.60;;;;;;5097746;28;19908;-39
2023/06/05 01:44:38;;;;;;;;;;;21.40;91.50;;;;;;5079832;28;19915;-39
2023/06/05 01:47:05;;;;;;;;;;;21.40;91.40;;;;;;5097792;28;20267;-38
2023/06/05 01:49:30;;;;;;;;;;;21.40;91.60;;;;;;5096913;28;20351;-39
2023/06/05 01:51:56;;;;;;;;;;;21.40;91.70;;;;;;5097896;28;19978;-39
2023/06/05 01:54:23;;;;;;;;;;;21.40;91.80;;;;;;5097813;28;20391;-39
2023/06/05 01:56:49;;;;;;;;;;;21.40;91.80;;;;;;5079652;28;20351;-38
2023/06/05 01:59:15;;;;;;;;;;;21.40;91.80;;;;;;5096990;28;19912;-39
2023/06/05 02:01:43;;;;;;;;;;;21.40;91.80;;;;;;5096543;28;19923;-39
2023/06/05 02:04:09;;;;;;;;;;;21.40;91.80;;;;;;5097618;28;19962;-39
2023/06/05 02:06:41;;;;;;;;;;;21.40;91.90;;;;;;5096101;28;19920;-39
2023/06/05 02:09:08;;;;;;;;;;;21.40;91.90;;;;;;5097585;28;19912;-39
2023/06/05 02:11:36;;;;;;;;;;;21.40;91.90;;;;;;5097379;28;19908;-39
2023/06/05 02:14:01;;;;;;;;;;;21.40;91.90;;;;;;5097383;28;19909;-39
2023/06/05 02:16:27;;;;;;;;;;;21.40;91.90;;;;;;5096619;28;19981;-39
2023/06/05 02:18:52;;;;;;;;;;;21.40;91.90;;;;;;5097062;28;19908;-39
2023/06/05 02:21:17;;;;;;;;;;;21.40;91.90;;;;;;5097601;28;19908;-39
2023/06/05 02:23:43;;;;;;;;;;;21.40;91.90;;;;;;5096894;28;19915;-39
2023/06/05 02:26:09;;;;;;;;;;;21.40;91.90;;;;;;5097928;28;19920;-39
2023/06/05 02:28:35;;;;;;;;;;;21.40;91.90;;;;;;5108298;28;20374;-39
2023/06/05 02:31:01;;;;;;;;;;;21.40;91.90;;;;;;5096808;28;19908;-39
2023/06/05 02:33:27;;;;;;;;;;;21.40;91.90;;;;;;5096684;28;19916;-39
2023/06/05 02:35:53;;;;;;;;;;;21.40;91.90;;;;;;5096250;28;19914;-42
2023/06/05 02:38:18;;;;;;;;;;;21.40;91.90;;;;;;5096477;28;20006;-38
2023/06/05 02:40:44;;;;;;;;;;;21.40;91.90;;;;;;5096932;28;19915;-39
2023/06/05 02:43:11;;;;;;;;;;;21.40;91.90;;;;;;5096576;28;19908;-39
2023/06/05 02:45:36;;;;;;;;;;;21.40;91.90;;;;;;5096825;28;20287;-39
2023/06/05 02:48:02;;;;;;;;;;;21.40;91.90;;;;;;5095128;28;19920;-39
2023/06/05 02:50:27;;;;;;;;;;;21.40;91.90;;;;;;5095883;28;19912;-39
2023/06/05 02:52:53;;;;;;;;;;;21.40;91.90;;;;;;5096471;28;19961;-39
2023/06/05 02:55:18;;;;;;;;;;;21.40;91.90;;;;;;5096673;28;19954;-38
2023/06/05 02:57:44;;;;;;;;;;;21.40;91.90;;;;;;5095977;28;19935;-39
2023/06/05 03:00:14;;;;;;;;;;;21.40;91.90;;;;;;5096238;28;19908;-39
2023/06/05 03:02:40;;;;;;;;;;;21.30;91.90;;;;;;5096483;28;19908;-39
2023/06/05 03:05:07;;;;;;;;;;;21.40;91.90;;;;;;5096152;28;19908;-38
2023/06/05 03:07:33;;;;;;;;;;;21.40;91.90;;;;;;5095427;28;20045;-39
2023/06/05 03:10:00;;;;;;;;;;;21.30;91.90;;;;;;5096291;28;20010;-39
2023/06/05 03:12:25;;;;;;;;;;;21.40;91.90;;;;;;5096600;28;19908;-38
2023/06/05 03:14:51;;;;;;;;;;;21.30;91.90;;;;;;5078061;28;20059;-38
2023/06/05 03:17:16;;;;;;;;;;;21.40;91.90;;;;;;5095363;28;19912;-40
2023/06/05 03:19:41;;;;;;;;;;;21.30;91.90;;;;;;5096136;28;19908;-38
2023/06/05 03:22:07;;;;;;;;;;;21.30;91.90;;;;;;5096120;28;19961;-39
2023/06/05 03:24:37;;;;;;;;;;;21.30;91.90;;;;;;5096072;28;19915;-38
2023/06/05 03:27:04;;;;;;;;;;;21.30;91.90;;;;;;5105395;28;19916;-39
2023/06/05 03:29:29;;;;;;;;;;;21.30;91.90;;;;;;5099454;28;19963;-39
2023/06/05 03:31:55;;;;;;;;;;;21.30;91.90;;;;;;5095895;28;19936;-39
2023/06/05 03:34:22;;;;;;;;;;;21.30;91.90;;;;;;5095886;28;20402;-39
2023/06/05 03:36:48;;;;;;;;;;;21.30;91.90;;;;;;5093587;28;19912;-39
2023/06/05 03:39:14;;;;;;;;;;;21.30;91.90;;;;;;5095639;28;19908;-39
2023/06/05 03:41:39;;;;;;;;;;;21.30;91.90;;;;;;5077572;28;19908;-39
2023/06/05 03:44:06;;;;;;;;;;;21.30;91.90;;;;;;5095641;28;19915;-39
2023/06/05 03:46:33;;;;;;;;;;;21.30;91.90;;;;;;5094798;28;19927;-39
2023/06/05 03:48:59;;;;;;;;;;;21.30;91.90;;;;;;5095503;28;19914;-39
2023/06/05 03:51:29;;;;;;;;;;;21.30;91.90;;;;;;5095555;28;19954;-39
2023/06/05 03:53:56;;;;;;;;;;;21.30;91.90;;;;;;5095370;28;19915;-39
2023/06/05 03:56:23;;;;;;;;;;;21.30;91.80;;;;;;5094672;28;19914;-40
2023/06/05 03:58:48;;;;;;;;;;;21.30;91.80;;;;;;5094946;28;19908;-39
2023/06/05 04:01:14;;;;;;;;;;;21.30;91.80;;;;;;5095288;28;19938;-39
2023/06/05 04:03:40;;;;;;;;;;;21.30;91.80;;;;;;5095258;28;19912;-39
2023/06/05 04:06:05;;;;;;;;;;;21.30;91.80;;;;;;5095117;28;19943;-39
2023/06/05 04:08:31;;;;;;;;;;;21.30;91.80;;;;;;5094481;28;19912;-39
2023/06/05 04:10:57;;;;;;;;;;;21.30;91.70;;;;;;5095127;28;19920;-39
2023/06/05 04:13:23;;;;;;;;;;;21.30;91.80;;;;;;5094849;28;19908;-39
2023/06/05 04:15:49;;;;;;;;;;;21.30;91.90;;;;;;5102071;28;19970;-39
2023/06/05 04:18:14;;;;;;;;;;;21.30;91.80;;;;;;5108339;28;19911;-39
2023/06/05 04:20:40;;;;;;;;;;;21.30;91.80;;;;;;5114979;28;20289;-39
2023/06/05 04:23:05;;;;;;;;;;;21.30;91.80;;;;;;5105437;28;19915;-39
2023/06/05 04:25:31;;;;;;;;;;;21.30;91.70;;;;;;5094599;28;19976;-39
2023/06/05 04:27:57;;;;;;;;;;;21.30;91.70;;;;;;5093863;28;19923;-40
2023/06/05 04:30:22;;;;;;;;;;;21.30;91.80;;;;;;5094411;28;19908;-39
2023/06/05 04:32:54;;;;;;;;;;;21.30;91.70;;;;;;5113831;28;19915;-39
2023/06/05 04:35:20;;;;;;;;;;;21.30;91.60;;;;;;5115017;28;19915;-40
2023/06/05 04:37:46;;;;;;;;;;;21.30;91.70;;;;;;5093841;28;19957;-39
2023/06/05 04:40:11;;;;;;;;;;;21.30;91.80;;;;;;5094285;28;19911;-39
2023/06/05 04:42:37;;;;;;;;;;;21.30;91.70;;;;;;5094339;28;20287;-39
2023/06/05 04:45:04;;;;;;;;;;;21.30;91.70;;;;;;5092841;28;19919;-40
2023/06/05 04:47:30;;;;;;;;;;;21.30;91.50;;;;;;5097726;28;19963;-39
2023/06/05 04:49:59;;;;;;;;;;;21.30;91.70;;;;;;5099181;28;19918;-39
2023/06/05 04:52:26;;;;;;;;;;;21.30;91.70;;;;;;5102282;28;20003;-39
2023/06/05 04:54:52;;;;;;;;;;;21.30;91.70;;;;;;5106283;28;19979;-40
2023/06/05 04:57:18;;;;;;;;;;;21.30;91.70;;;;;;5103093;28;19919;-40
2023/06/05 04:59:44;;;;;;;;;;;21.40;91.90;;;;;;5100177;28;19912;-39
2023/06/05 05:02:10;;;;;;;;;;;21.40;91.80;;;;;;5093272;28;20054;-40
2023/06/05 05:04:36;;;;;;;;;;;21.40;91.80;;;;;;5095260;28;20373;-40
2023/06/05 05:07:01;;;;;;;;;;;21.40;92.00;;;;;;5114486;28;19916;-39
2023/06/05 05:09:27;;;;;;;;;;;21.30;91.70;;;;;;5113758;28;19908;-40
2023/06/05 05:11:53;;;;;;;;;;;21.30;91.60;;;;;;5103708;28;20015;-39
2023/06/05 05:14:18;;;;;;;;;;;21.30;91.50;;;;;;5091394;28;20340;-39
2023/06/05 05:16:44;;;;;;;;;;;21.40;91.70;;;;;;5075449;28;19912;-39
2023/06/05 05:19:10;;;;;;;;;;;21.40;91.80;;;;;;5093141;28;20023;-40
2023/06/05 05:21:36;;;;;;;;;;;21.40;91.70;;;;;;5112789;28;19951;-39
2023/06/05 05:24:01;;;;;;;;;;;21.40;91.60;;;;;;5094450;28;20270;-40
2023/06/05 05:26:27;;;;;;;;;;;21.40;91.60;;;;;;5093842;28;19920;-39
2023/06/05 05:28:53;;;;;;;;;;;21.40;91.70;;;;;;5091751;28;19912;-39
2023/06/05 05:31:18;;;;;;;;;;;21.40;91.60;;;;;;5093923;28;19996;-39
2023/06/05 05:33:44;;;;;;;;;;;21.30;91.70;;;;;;5093746;28;20351;-39
2023/06/05 05:36:09;;;;;;;;;;;21.40;91.70;;;;;;5091632;28;19919;-40
2023/06/05 05:38:35;;;;;;;;;;;21.40;91.80;;;;;;5113563;28;19915;-39
2023/06/05 05:41:00;;;;;;;;;;;21.40;91.90;;;;;;5114298;28;19915;-40
2023/06/05 05:43:26;;;;;;;;;;;21.40;91.80;;;;;;5114218;28;20377;-39
2023/06/05 05:45:51;;;;;;;;;;;21.40;91.80;;;;;;5079070;28;19912;-39
2023/06/05 05:48:17;;;;;;;;;;;21.40;91.70;;;;;;5100471;28;19920;-39
2023/06/05 05:50:42;;;;;;;;;;;21.40;91.60;;;;;;5093602;28;19995;-39
2023/06/05 05:53:08;;;;;;;;;;;21.40;91.70;;;;;;5093387;28;20347;-41
2023/06/05 05:55:33;;;;;;;;;;;21.40;91.70;;;;;;5092495;28;19920;-39
2023/06/05 05:57:59;;;;;;;;;;;21.40;91.70;;;;;;5092645;28;19912;-40
2023/06/05 06:00:25;;;;;;;;;;;21.40;91.70;;;;;;5093551;28;20405;-38
2023/06/05 06:02:52;;;;;;;;;;;21.50;91.60;;;;;;5097029;28;19912;-39
2023/06/05 06:05:18;;;;;;;;;;;21.50;91.60;;;;;;5097271;28;19919;-38
2023/06/05 06:07:43;;;;;;;;;;;21.50;91.60;;;;;;5111043;28;20010;-39
2023/06/05 06:10:09;;;;;;;;;;;21.50;91.70;;;;;;5113421;28;20255;-40
2023/06/05 06:12:36;;;;;;;;;;;21.40;91.60;;;;;;5094872;28;19919;-39
2023/06/05 06:15:01;;;;;;;;;;;21.50;91.70;;;;;;5106034;28;19912;-39
2023/06/05 06:17:27;;;;;;;;;;;21.40;91.80;;;;;;5092020;28;20669;-39
2023/06/05 06:19:52;;;;;;;;;;;21.50;91.80;;;;;;5100944;28;20278;-39
2023/06/05 06:22:18;;;;;;;;;;;21.50;91.70;;;;;;5091579;28;20174;-39
2023/06/05 06:24:43;;;;;;;;;;;21.50;91.90;;;;;;5096989;28;20305;-40
2023/06/05 06:27:10;;;;;;;;;;;21.50;91.90;;;;;;5098812;28;20342;-39
2023/06/05 06:29:37;;;;;;;;;;;21.50;92.10;;;;;;5096766;28;19919;-39
2023/06/05 06:32:03;;;;;;;;;;;21.50;92.00;;;;;;5078796;28;19909;-39
2023/06/05 06:34:29;;;;;;;;;;;21.50;92.00;;;;;;5096076;28;20275;-39
2023/06/05 06:36:54;;;;;;;;;;;21.50;92.00;;;;;;5098246;28;20363;-39
2023/06/05 06:39:19;;;;;;;;;;;21.50;91.90;;;;;;5100191;28;20463;-39
2023/06/05 06:41:45;;;;;;;;;;;21.50;91.80;;;;;;5117162;28;20225;-39
2023/06/05 06:44:11;;;;;;;;;;;21.50;91.80;;;;;;5081957;28;19953;-39
2023/06/05 06:46:36;;;;;;;;;;;21.50;91.80;;;;;;5101529;28;20285;-39
2023/06/05 06:49:02;;;;;;;;;;;21.50;92.20;;;;;;5107112;28;19916;-39
2023/06/05 06:51:27;;;;;;;;;;;21.50;91.80;;;;;;5116794;28;20010;-39
2023/06/05 06:53:53;;;;;;;;;;;21.50;91.70;;;;;;5100759;28;19912;-38
2023/06/05 06:56:19;;;;;;;;;;;21.50;91.70;;;;;;5095217;28;19912;-39
2023/06/05 06:58:48;;;;;;;;;;;21.50;91.80;;;;;;5094777;28;19908;-40
2023/06/05 07:01:14;;;;;;;;;;;21.50;91.90;;;;;;5095014;28;20041;-39
2023/06/05 07:03:40;;;;;;;;;;;21.50;91.90;;;;;;5095025;28;19908;-41
2023/06/05 07:06:06;;;;;;;;;;;21.50;91.70;;;;;;5094471;28;19908;-44
2023/06/05 07:08:32;;;;;;;;;;;21.50;91.80;;;;;;5094043;28;19912;-41
2023/06/05 07:10:58;;;;;;;;;;;21.50;91.70;;;;;;5094531;28;19938;-40
2023/06/05 07:13:23;;;;;;;;;;;21.50;91.60;;;;;;5077424;28;19912;-40
2023/06/05 07:15:49;;;;;;;;;;;21.50;91.60;;;;;;5095713;28;19908;-40
2023/06/05 07:18:15;;;;;;;;;;;21.50;91.70;;;;;;5094854;28;19908;-40
2023/06/05 07:20:40;;;;;;;;;;;21.50;91.80;;;;;;5096618;28;19916;-40
2023/06/05 07:23:06;;;;;;;;;;;21.50;91.90;;;;;;5107723;28;19912;-40
2023/06/05 07:25:31;;;;;;;;;;;21.50;92.00;;;;;;5115890;28;19914;-42
2023/06/05 07:27:59;;;;;;;;;;;21.50;91.80;;;;;;5115887;28;20282;-39
2023/06/05 07:30:25;;;;;;;;;;;21.50;91.80;;;;;;5099172;28;19994;-39
2023/06/05 07:32:51;;;;;;;;;;;21.50;91.80;;;;;;5094771;28;19912;-39
2023/06/05 07:35:16;;;;;;;;;;;21.50;91.80;;;;;;5095702;28;20255;-39
2023/06/05 07:37:42;;;;;;;;;;;21.50;91.90;;;;;;5095246;28;20045;-39
2023/06/05 07:40:08;;;;;;;;;;;21.50;92.00;;;;;;5094421;28;20010;-39
2023/06/05 07:42:34;;;;;;;;;;;21.50;92.10;;;;;;5095540;28;19908;-39
2023/06/05 07:45:00;;;;;;;;;;;21.50;92.00;;;;;;5094214;28;20412;-39
2023/06/05 07:47:25;;;;;;;;;;;21.50;91.90;;;;;;5094447;28;19920;-39
2023/06/05 07:50:03;;;;;;;;;;;21.50;91.80;;;;;;5095079;28;19908;-39
2023/06/05 07:52:29;;;;;;;;;;;21.50;91.80;;;;;;5077128;28;20363;-39
2023/06/05 07:54:55;;;;;;;;;;;21.50;91.80;;;;;;5093612;28;19955;-39
2023/06/05 07:57:20;;;;;;;;;;;21.50;91.70;;;;;;5095245;28;20428;-39
2023/06/05 07:59:46;;;;;;;;;;;21.50;91.60;;;;;;5093250;28;19916;-46
2023/06/05 08:02:12;;;;;;;;;;;21.50;91.60;;;;;;5088614;28;19919;-39
2023/06/05 08:04:39;;;;;;;;;;;21.50;91.70;;;;;;5106303;28;20346;-39
2023/06/05 08:07:04;;;;;;;;;;;21.60;91.70;;;;;;5089991;28;19946;-40
2023/06/05 08:09:30;;;;;;;;;;;21.50;91.80;;;;;;5105243;28;20339;-39
2023/06/05 08:11:55;;;;;;;;;;;21.50;91.90;;;;;;5115710;28;19951;-39
2023/06/05 08:14:21;;;;;;;;;;;21.60;91.90;;;;;;5103361;28;19912;-39
2023/06/05 08:16:46;;;;;;;;;;;21.60;92.00;;;;;;5094932;28;19919;-39
2023/06/05 08:19:12;;;;;;;;;;;21.50;91.90;;;;;;5108012;28;19912;-40
2023/06/05 08:21:37;;;;;;;;;;;21.50;91.80;;;;;;5114942;28;20267;-40
2023/06/05 08:24:03;;;;;;;;;;;21.50;91.70;;;;;;5095682;28;19934;-40
2023/06/05 08:26:28;;;;;;;;;;;21.60;91.70;;;;;;5107378;28;19920;-39
2023/06/05 08:28:54;;;;;;;;;;;21.50;91.70;;;;;;5114296;28;19912;-39
2023/06/05 08:31:20;;;;;;;;;;;21.60;91.80;;;;;;5107916;28;19951;-39
2023/06/05 08:33:45;;;;;;;;;;;21.50;91.80;;;;;;5095326;28;20290;-39
2023/06/05 08:36:11;;;;;;;;;;;21.50;91.70;;;;;;5107470;28;19920;-39
2023/06/05 08:38:37;;;;;;;;;;;21.50;91.70;;;;;;5089888;28;19958;-43
2023/06/05 08:41:05;;;;;;;;;;;21.50;91.70;;;;;;5093736;28;19954;-40
2023/06/05 08:43:31;;;;;;;;;;;21.60;91.60;;;;;;5093030;28;19908;-39
2023/06/05 08:45:57;;;;;;;;;;;21.60;91.40;;;;;;5093549;28;19919;-39
2023/06/05 08:48:24;;;;;;;;;;;21.50;91.40;;;;;;5094411;28;19945;-39
2023/06/05 08:50:50;;;;;;;;;;;21.50;91.40;;;;;;5094363;28;20252;-39
2023/06/05 08:53:16;;;;;;;;;;;21.60;91.40;;;;;;5094282;28;19908;-38
2023/06/05 08:55:44;;;;;;;;;;;21.50;91.40;;;;;;5073726;28;19912;-39
2023/06/05 08:58:12;;;;;;;;;;;21.50;91.50;;;;;;5075407;28;19912;-39
2023/06/05 09:00:38;;;;;;;;;;;21.50;91.60;;;;;;5094218;28;19908;-39
2023/06/05 09:03:03;;;;;;;;;;;21.50;91.60;;;;;;5093904;28;19915;-40
2023/06/05 09:05:28;;;;;;;;;;;21.50;91.60;;;;;;5092884;28;19997;-39
2023/06/05 09:07:54;;;;;;;;;;;21.50;91.50;;;;;;5092463;28;20011;-39
2023/06/05 09:10:24;;;;;;;;;;;21.60;91.70;;;;;;5093437;28;19919;-39
2023/06/05 09:12:59;;;;;;;;;;;21.60;91.70;;;;;;5094276;28;20274;-39
2023/06/05 09:15:29;;;;;;;;;;;21.50;91.60;;;;;;5093931;28;19951;-39
2023/06/05 09:18:04;;;;;;;;;;;21.60;91.60;;;;;;5093454;28;19908;-39
2023/06/05 09:20:31;;;;;;;;;;;21.50;91.50;;;;;;5075553;28;19945;-39
2023/06/05 09:22:57;;;;;;;;;;;21.60;91.60;;;;;;5104921;28;19912;-39
2023/06/05 09:25:22;;;;;;;;;;;21.60;91.60;;;;;;5101869;28;20355;-39
2023/06/05 09:28:07;;;;;;;;;;;21.60;91.60;;;;;;5093261;28;19982;-39
2023/06/05 09:30:32;;;;;;;;;;;21.60;91.60;;;;;;5093949;28;19909;-39
2023/06/05 09:33:08;;;;;;;;;;;21.50;91.60;;;;;;5093829;28;19908;-39
2023/06/05 09:35:33;;;;;;;;;;;21.60;91.60;;;;;;5093646;28;20006;-41
2023/06/05 09:37:58;;;;;;;;;;;21.60;91.50;;;;;;5093208;28;20053;-39
2023/06/05 09:40:36;;;;;;;;;;;21.60;91.50;;;;;;5091985;28;19919;-39
2023/06/05 09:43:01;;;;;;;;;;;21.60;91.50;;;;;;5093773;28;19908;-39
2023/06/05 09:45:41;;;;;;;;;;;21.50;91.60;;;;;;5093792;28;19908;-39
2023/06/05 09:48:13;;;;;;;;;;;21.60;91.70;;;;;;5093252;28;19993;-47
2023/06/05 09:50:39;;;;;;;;;;;21.60;91.70;;;;;;5096717;28;19918;-39
2023/06/05 09:53:05;;;;;;;;;;;21.50;91.40;;;;;;5094229;28;19912;-41
2023/06/05 09:55:31;;;;;;;;;;;21.50;91.20;;;;;;5092981;28;19908;-39
2023/06/05 09:57:57;;;;;;;;;;;21.50;91.30;;;;;;5097328;28;19916;-39
2023/06/05 10:00:23;;;;;;;;;;;21.60;91.40;;;;;;5097208;28;20278;-39
2023/06/05 10:02:48;;;;;;;;;;;21.60;91.30;;;;;;5096490;28;19919;-39
2023/06/05 10:05:14;;;;;;;;;;;21.50;91.40;;;;;;5095261;28;19912;-40
2023/06/05 10:07:41;;;;;;;;;;;21.60;91.40;;;;;;5097176;28;19916;-39
2023/06/05 10:10:09;;;;;;;;;;;21.60;91.40;;;;;;5096962;28;19908;-40
2023/06/05 10:12:34;;;;;;;;;;;21.60;91.50;;;;;;5078559;28;19909;-41
2023/06/05 10:15:01;;;;;;;;;;;21.60;91.50;;;;;;5096378;28;19908;-39
2023/06/05 10:17:27;;;;;;;;;;;21.60;91.50;;;;;;5097198;28;19909;-40
2023/06/05 10:19:52;;;;;;;;;;;21.60;91.50;;;;;;5096919;28;19993;-39
2023/06/05 10:22:19;;;;;;;;;;;21.50;91.50;;;;;;5102258;28;19962;-39
2023/06/05 10:24:46;;;;;;;;;;;21.50;91.40;;;;;;5100474;28;20401;-39
2023/06/05 10:27:44;;;;;;;;;;;21.60;91.40;;;;;;5096866;28;19916;-39
2023/06/05 10:30:12;;;;;;;;;;;21.60;91.40;;;;;;5041383;28;19915;-39
2023/06/05 10:32:40;;;;;;;;;;;21.50;91.40;;;;;;5097104;28;20305;-39
2023/06/05 10:35:27;;;;;;;;;;;21.60;91.50;;;;;;5096094;28;19912;-39
2023/06/05 10:37:56;;;;;;;;;;;21.60;91.50;;;;;;5096454;28;19908;-39
2023/06/05 10:40:22;;;;;;;;;;;21.60;91.50;;;;;;5096537;28;19913;-39
2023/06/05 10:42:47;;;;;;;;;;;21.60;91.50;;;;;;5096345;28;19912;-40
2023/06/05 10:45:28;;;;;;;;;;;21.60;91.40;;;;;;5095494;28;19912;-39
2023/06/05 10:47:53;;;;;;;;;;;21.60;91.40;;;;;;5096716;28;20015;-39
2023/06/05 10:50:20;;;;;;;;;;;21.60;91.50;;;;;;5096439;28;19966;-39
2023/06/05 10:52:47;;;;;;;;;;;21.60;91.50;;;;;;5096508;28;19961;-40
2023/06/05 10:55:15;;;;;;;;;;;21.60;91.50;;;;;;5095444;28;19958;-39
2023/06/05 10:57:55;;;;;;;;;;;21.60;91.40;;;;;;5095998;28;19980;-39
2023/06/05 11:00:21;;;;;;;;;;;21.60;91.40;;;;;;5096026;28;19947;-39
2023/06/05 11:02:46;;;;;;;;;;;21.60;91.40;;;;;;5094805;28;19923;-40
2023/06/05 11:05:12;;;;;;;;;;;21.60;91.40;;;;;;5096219;28;19954;-39
2023/06/05 11:07:38;;;;;;;;;;;21.60;91.40;;;;;;5093144;28;20437;-39
2023/06/05 11:10:08;;;;;;;;;;;21.60;91.40;;;;;;5076791;28;19912;-42
2023/06/05 11:12:42;;;;;;;;;;;21.60;91.40;;;;;;5097147;28;19961;-39
2023/06/05 11:15:09;;;;;;;;;;;21.60;91.40;;;;;;5096025;28;19950;-39
2023/06/05 11:17:44;;;;;;;;;;;21.60;91.40;;;;;;5078014;28;19908;-39
2023/06/05 11:20:10;;;;;;;;;;;21.60;91.30;;;;;;5093233;28;20007;-45
2023/06/05 11:22:55;;;;;;;;;;;21.60;91.30;;;;;;5090142;28;20323;-40
2023/06/05 11:25:21;;;;;;;;;;;21.60;91.40;;;;;;5093768;28;20381;-40
2023/06/05 11:27:49;;;;;;;;;;;21.60;91.30;;;;;;5094344;28;19923;-39
2023/06/05 11:30:15;;;;;;;;;;;21.60;91.30;;;;;;5095701;28;19977;-39
2023/06/05 11:32:41;;;;;;;;;;;21.60;91.30;;;;;;5094098;28;19923;-40
2023/06/05 11:35:08;;;;;;;;;;;21.60;91.30;;;;;;5095547;28;19912;-41
2023/06/05 11:37:34;;;;;;;;;;;21.60;91.30;;;;;;5094375;28;19944;-40
2023/06/05 11:40:04;;;;;;;;;;;21.60;91.30;;;;;;5095160;28;19955;-40
2023/06/05 11:42:30;;;;;;;;;;;21.60;91.30;;;;;;5095227;28;19990;-38
2023/06/05 11:44:55;;;;;;;;;;;21.60;91.30;;;;;;5095564;28;19952;-38
2023/06/05 11:47:25;;;;;;;;;;;21.60;91.30;;;;;;5093449;28;19920;-38
2023/06/05 11:49:51;;;;;;;;;;;21.60;91.30;;;;;;5095509;28;20274;-38
2023/06/05 11:52:23;;;;;;;;;;;21.60;91.20;;;;;;5095441;28;19908;-39
2023/06/05 11:55:05;;;;;;;;;;;21.60;91.30;;;;;;5095177;28;19908;-40
2023/06/05 11:57:57;;;;;;;;;;;21.60;91.20;;;;;;5094505;28;19920;-39
2023/06/05 12:00:23;;;;;;;;;;;21.60;91.20;;;;;;5072102;28;19908;-39
2023/06/05 12:02:49;;;;;;;;;;;21.60;91.20;;;;;;5095115;28;19912;-39
2023/06/05 12:05:14;;;;;;;;;;;21.60;91.20;;;;;;5094985;28;19908;-39
2023/06/05 12:07:41;;;;;;;;;;;21.60;91.20;;;;;;5093392;28;19945;-39
2023/06/05 12:10:08;;;;;;;;;;;21.60;91.30;;;;;;5094690;28;19912;-40
2023/06/05 12:12:33;;;;;;;;;;;21.70;91.30;;;;;;5094841;28;19908;-38
2023/06/05 12:15:14;;;;;;;;;;;21.70;91.30;;;;;;5094398;28;20423;-39
2023/06/05 12:17:40;;;;;;;;;;;21.70;91.40;;;;;;5093397;28;19908;-39
2023/06/05 12:20:08;;;;;;;;;;;21.60;91.40;;;;;;5094575;28;19909;-39
2023/06/05 12:22:34;;;;;;;;;;;21.60;91.40;;;;;;5102283;28;20330;-39
2023/06/05 12:25:17;;;;;;;;;;;21.70;91.40;;;;;;5115197;28;19976;-39
2023/06/05 12:27:44;;;;;;;;;;;21.70;91.40;;;;;;5096753;28;20280;-39
2023/06/05 12:30:09;;;;;;;;;;;21.70;91.40;;;;;;5073875;28;19937;-39
2023/06/05 12:32:35;;;;;;;;;;;21.70;91.40;;;;;;5094838;28;19908;-39
2023/06/05 12:35:00;;;;;;;;;;;21.60;91.30;;;;;;5091865;28;20011;-40
2023/06/05 12:37:37;;;;;;;;;;;21.70;91.40;;;;;;5082745;28;19912;-39
2023/06/05 12:40:08;;;;;;;;;;;21.70;91.40;;;;;;5092522;28;19913;-40
2023/06/05 12:42:35;;;;;;;;;;;21.70;91.40;;;;;;5097273;28;19913;-40
2023/06/05 12:45:01;;;;;;;;;;;21.60;91.40;;;;;;5094495;28;19962;-40
2023/06/05 12:47:28;;;;;;;;;;;21.70;91.40;;;;;;5093391;28;20687;-40
2023/06/05 12:49:53;;;;;;;;;;;21.70;91.40;;;;;;5097486;28;20354;-39
2023/06/05 12:52:25;;;;;;;;;;;21.70;91.40;;;;;;5092123;28;19916;-40
2023/06/05 12:54:50;;;;;;;;;;;21.70;91.60;;;;;;5093864;28;19908;-40
2023/06/05 12:57:20;;;;;;;;;;;21.70;91.40;;;;;;5093867;28;19915;-40
2023/06/05 12:59:50;;;;;;;;;;;21.70;91.60;;;;;;5106992;28;19912;-39
2023/06/05 13:02:16;;;;;;;;;;;21.70;91.30;;;;;;5098358;28;19912;-40
2023/06/05 13:04:41;;;;;;;;;;;21.70;91.30;;;;;;5097674;28;19957;-40
2023/06/05 13:07:07;;;;;;;;;;;21.70;91.30;;;;;;5098127;28;20243;-39
2023/06/05 13:09:33;;;;;;;;;;;21.70;91.30;;;;;;5094164;28;19908;-40
2023/06/05 13:12:03;;;;;;;;;;;21.70;91.40;;;;;;5091494;28;19916;-40
2023/06/05 13:14:29;;;;;;;;;;;21.70;91.40;;;;;;5092538;28;19912;-40
2023/06/05 13:16:56;;;;;;;;;;;21.70;91.40;;;;;;5104592;28;19934;-40
2023/06/05 13:19:22;;;;;;;;;;;21.70;91.40;;;;;;5098346;28;19973;-40
2023/06/05 13:21:47;;;;;;;;;;;21.70;91.40;;;;;;5096968;28;19951;-40
2023/06/05 13:24:13;;;;;;;;;;;21.70;91.40;;;;;;5091596;28;19955;-40
2023/06/05 13:26:38;;;;;;;;;;;21.70;91.50;;;;;;5092447;28;19977;-41
2023/06/05 13:29:04;;;;;;;;;;;21.70;91.60;;;;;;5101034;28;19973;-41
2023/06/05 13:31:30;;;;;;;;;;;21.70;91.60;;;;;;5095600;28;19994;-40
2023/06/05 13:33:56;;;;;;;;;;;21.70;91.60;;;;;;5107075;28;20355;-41
2023/06/05 13:36:22;;;;;;;;;;;21.80;91.70;;;;;;5108051;28;19985;-40
2023/06/05 13:38:48;;;;;;;;;;;21.80;91.70;;;;;;5097498;28;20369;-40
2023/06/05 13:41:14;;;;;;;;;;;21.80;91.70;;;;;;5097850;28;19908;-41
2023/06/05 13:43:39;;;;;;;;;;;21.80;91.80;;;;;;5096885;28;20424;-42
2023/06/05 13:46:05;;;;;;;;;;;21.80;91.80;;;;;;5079641;28;20404;-42
2023/06/05 13:48:30;;;;;;;;;;;21.80;91.80;;;;;;5097651;28;20377;-43
2023/06/05 13:50:59;;;;;;;;;;;21.80;91.80;;;;;;5104061;28;20013;-44
2023/06/05 13:53:24;;;;;;;;;;;21.80;91.80;;;;;;5097329;28;20405;-40
2023/06/05 13:55:50;;;;;;;;;;;21.90;91.80;;;;;;5097477;28;19908;-41
2023/06/05 13:58:15;;;;;;;;;;;21.80;91.80;;;;;;5097289;28;20354;-42
2023/06/05 14:00:42;;;;;;;;;;;21.90;91.80;;;;;;5095564;28;19912;-40
2023/06/05 14:03:08;;;;;;;;;;;21.90;91.80;;;;;;5095616;28;20024;-40
2023/06/05 14:05:33;;;;;;;;;;;21.90;91.90;;;;;;5110121;28;20125;-39
2023/06/05 14:07:59;;;;;;;;;;;21.90;91.90;;;;;;5102387;28;19940;-39
2023/06/05 14:10:25;;;;;;;;;;;21.90;91.90;;;;;;5095890;28;19912;-39
2023/06/05 14:12:51;;;;;;;;;;;21.80;91.90;;;;;;5099722;28;19963;-40
2023/06/05 14:15:17;;;;;;;;;;;21.90;91.90;;;;;;5096450;28;19951;-40